<?xml version="1.0" encoding="UTF-8" standalone="no" ?>
<gpx xmlns="http://www.topografix.com/GPX/1/1" xmlns:xsi="http://www.w3.org/2001/XMLSchema-instance" xsi:schemaLocation="http://www.topografix.com/GPX/1/1 http://www.topografix.com/GPX/1/1/gpx.xsd" version="1.1" creator="VisuGPX - https://www.visugpx.com">
  <metadata>
    <name>Balade découverte Le Touquet Shop Shop</name>
    <desc><![CDATA[La sortie spécial shopping du séjour]]></desc>
  </metadata>
  <trk>
    <name><![CDATA[SityTrail - Shop Shop]]></name>
    <trkseg>
      <trkpt lat="50.51498" lon="1.57759">
        <ele>6</ele>
        <time>2021-08-12T16:29:41.681Z</time>
      </trkpt>
      <trkpt lat="50.51499" lon="1.57758">
        <ele>6</ele>
        <time>2021-08-12T16:29:42.672Z</time>
      </trkpt>
      <trkpt lat="50.51457" lon="1.57813">
        <ele>13</ele>
        <time>2021-08-12T16:30:34.676Z</time>
      </trkpt>
      <trkpt lat="50.5146" lon="1.57826">
        <ele>15</ele>
        <time>2021-08-12T16:30:39.670Z</time>
      </trkpt>
      <trkpt lat="50.51462" lon="1.57834">
        <ele>15</ele>
        <time>2021-08-12T16:30:43.692Z</time>
      </trkpt>
      <trkpt lat="50.51466" lon="1.57838">
        <ele>15</ele>
        <time>2021-08-12T16:30:47.679Z</time>
      </trkpt>
      <trkpt lat="50.51473" lon="1.57841">
        <ele>15</ele>
        <time>2021-08-12T16:30:52.677Z</time>
      </trkpt>
      <trkpt lat="50.51477" lon="1.57844">
        <ele>15</ele>
        <time>2021-08-12T16:30:56.684Z</time>
      </trkpt>
      <trkpt lat="50.51482" lon="1.57847">
        <ele>15</ele>
        <time>2021-08-12T16:31:00.679Z</time>
      </trkpt>
      <trkpt lat="50.51488" lon="1.57848">
        <ele>15</ele>
        <time>2021-08-12T16:31:05.674Z</time>
      </trkpt>
      <trkpt lat="50.51493" lon="1.57849">
        <ele>15</ele>
        <time>2021-08-12T16:31:09.674Z</time>
      </trkpt>
      <trkpt lat="50.51499" lon="1.57849">
        <ele>15</ele>
        <time>2021-08-12T16:31:14.683Z</time>
      </trkpt>
      <trkpt lat="50.51505" lon="1.5785">
        <ele>15</ele>
        <time>2021-08-12T16:31:19.676Z</time>
      </trkpt>
      <trkpt lat="50.51511" lon="1.5785">
        <ele>15</ele>
        <time>2021-08-12T16:31:24.686Z</time>
      </trkpt>
      <trkpt lat="50.51517" lon="1.57852">
        <ele>15</ele>
        <time>2021-08-12T16:31:29.681Z</time>
      </trkpt>
      <trkpt lat="50.51523" lon="1.57852">
        <ele>15</ele>
        <time>2021-08-12T16:31:34.681Z</time>
      </trkpt>
      <trkpt lat="50.51529" lon="1.57853">
        <ele>15</ele>
        <time>2021-08-12T16:31:39.680Z</time>
      </trkpt>
      <trkpt lat="50.51535" lon="1.57855">
        <ele>15</ele>
        <time>2021-08-12T16:31:44.680Z</time>
      </trkpt>
      <trkpt lat="50.5154" lon="1.57856">
        <ele>15</ele>
        <time>2021-08-12T16:31:49.672Z</time>
      </trkpt>
      <trkpt lat="50.51545" lon="1.57857">
        <ele>14</ele>
        <time>2021-08-12T16:31:53.678Z</time>
      </trkpt>
      <trkpt lat="50.51549" lon="1.57858">
        <ele>14</ele>
        <time>2021-08-12T16:31:57.678Z</time>
      </trkpt>
      <trkpt lat="50.51555" lon="1.57859">
        <ele>14</ele>
        <time>2021-08-12T16:32:02.690Z</time>
      </trkpt>
      <trkpt lat="50.5156" lon="1.57862">
        <ele>14</ele>
        <time>2021-08-12T16:32:07.675Z</time>
      </trkpt>
      <trkpt lat="50.51566" lon="1.57865">
        <ele>14</ele>
        <time>2021-08-12T16:32:12.681Z</time>
      </trkpt>
      <trkpt lat="50.5157" lon="1.5787">
        <ele>13</ele>
        <time>2021-08-12T16:32:17.678Z</time>
      </trkpt>
      <trkpt lat="50.51572" lon="1.57877">
        <ele>16</ele>
        <time>2021-08-12T16:32:22.674Z</time>
      </trkpt>
      <trkpt lat="50.51574" lon="1.57882">
        <ele>16</ele>
        <time>2021-08-12T16:32:26.682Z</time>
      </trkpt>
      <trkpt lat="50.51575" lon="1.57888">
        <ele>16</ele>
        <time>2021-08-12T16:32:30.684Z</time>
      </trkpt>
      <trkpt lat="50.51578" lon="1.57895">
        <ele>16</ele>
        <time>2021-08-12T16:32:35.676Z</time>
      </trkpt>
      <trkpt lat="50.51583" lon="1.579">
        <ele>16</ele>
        <time>2021-08-12T16:32:40.679Z</time>
      </trkpt>
      <trkpt lat="50.51588" lon="1.57904">
        <ele>17</ele>
        <time>2021-08-12T16:32:45.687Z</time>
      </trkpt>
      <trkpt lat="50.51594" lon="1.57906">
        <ele>17</ele>
        <time>2021-08-12T16:32:50.684Z</time>
      </trkpt>
      <trkpt lat="50.51598" lon="1.5791">
        <ele>15</ele>
        <time>2021-08-12T16:32:54.681Z</time>
      </trkpt>
      <trkpt lat="50.51603" lon="1.57913">
        <ele>15</ele>
        <time>2021-08-12T16:32:59.683Z</time>
      </trkpt>
      <trkpt lat="50.51606" lon="1.57915">
        <ele>15</ele>
        <time>2021-08-12T16:33:03.684Z</time>
      </trkpt>
      <trkpt lat="50.51611" lon="1.57916">
        <ele>15</ele>
        <time>2021-08-12T16:33:07.678Z</time>
      </trkpt>
      <trkpt lat="50.51617" lon="1.57915">
        <ele>15</ele>
        <time>2021-08-12T16:33:12.679Z</time>
      </trkpt>
      <trkpt lat="50.51622" lon="1.57916">
        <ele>15</ele>
        <time>2021-08-12T16:33:17.680Z</time>
      </trkpt>
      <trkpt lat="50.51625" lon="1.57922">
        <ele>15</ele>
        <time>2021-08-12T16:33:22.683Z</time>
      </trkpt>
      <trkpt lat="50.51626" lon="1.5793">
        <ele>13</ele>
        <time>2021-08-12T16:33:27.671Z</time>
      </trkpt>
      <trkpt lat="50.51628" lon="1.57935">
        <ele>15</ele>
        <time>2021-08-12T16:33:32.680Z</time>
      </trkpt>
      <trkpt lat="50.51633" lon="1.57935">
        <ele>15</ele>
        <time>2021-08-12T16:33:37.668Z</time>
      </trkpt>
      <trkpt lat="50.51637" lon="1.57931">
        <ele>15</ele>
        <time>2021-08-12T16:33:42.680Z</time>
      </trkpt>
      <trkpt lat="50.51642" lon="1.57932">
        <ele>15</ele>
        <time>2021-08-12T16:33:46.685Z</time>
      </trkpt>
      <trkpt lat="50.51647" lon="1.57933">
        <ele>15</ele>
        <time>2021-08-12T16:33:50.680Z</time>
      </trkpt>
      <trkpt lat="50.51652" lon="1.57933">
        <ele>15</ele>
        <time>2021-08-12T16:33:55.672Z</time>
      </trkpt>
      <trkpt lat="50.51656" lon="1.57933">
        <ele>14</ele>
        <time>2021-08-12T16:33:59.683Z</time>
      </trkpt>
      <trkpt lat="50.51662" lon="1.57934">
        <ele>14</ele>
        <time>2021-08-12T16:34:04.682Z</time>
      </trkpt>
      <trkpt lat="50.51668" lon="1.57934">
        <ele>14</ele>
        <time>2021-08-12T16:34:09.677Z</time>
      </trkpt>
      <trkpt lat="50.51673" lon="1.57934">
        <ele>14</ele>
        <time>2021-08-12T16:34:14.684Z</time>
      </trkpt>
      <trkpt lat="50.51678" lon="1.57935">
        <ele>14</ele>
        <time>2021-08-12T16:34:18.683Z</time>
      </trkpt>
      <trkpt lat="50.51683" lon="1.57937">
        <ele>13</ele>
        <time>2021-08-12T16:34:23.686Z</time>
      </trkpt>
      <trkpt lat="50.51688" lon="1.57937">
        <ele>13</ele>
        <time>2021-08-12T16:34:27.678Z</time>
      </trkpt>
      <trkpt lat="50.51694" lon="1.57938">
        <ele>13</ele>
        <time>2021-08-12T16:34:32.673Z</time>
      </trkpt>
      <trkpt lat="50.51698" lon="1.57939">
        <ele>13</ele>
        <time>2021-08-12T16:34:36.678Z</time>
      </trkpt>
      <trkpt lat="50.51703" lon="1.57941">
        <ele>13</ele>
        <time>2021-08-12T16:34:41.678Z</time>
      </trkpt>
      <trkpt lat="50.51708" lon="1.57942">
        <ele>13</ele>
        <time>2021-08-12T16:34:45.684Z</time>
      </trkpt>
      <trkpt lat="50.51713" lon="1.57944">
        <ele>13</ele>
        <time>2021-08-12T16:34:50.679Z</time>
      </trkpt>
      <trkpt lat="50.51716" lon="1.57947">
        <ele>13</ele>
        <time>2021-08-12T16:34:54.688Z</time>
      </trkpt>
      <trkpt lat="50.51721" lon="1.57952">
        <ele>13</ele>
        <time>2021-08-12T16:34:59.669Z</time>
      </trkpt>
      <trkpt lat="50.51726" lon="1.57953">
        <ele>13</ele>
        <time>2021-08-12T16:35:03.690Z</time>
      </trkpt>
      <trkpt lat="50.5173" lon="1.57949">
        <ele>13</ele>
        <time>2021-08-12T16:35:07.683Z</time>
      </trkpt>
      <trkpt lat="50.51734" lon="1.5795">
        <ele>13</ele>
        <time>2021-08-12T16:35:12.678Z</time>
      </trkpt>
      <trkpt lat="50.51738" lon="1.57953">
        <ele>12</ele>
        <time>2021-08-12T16:35:16.682Z</time>
      </trkpt>
      <trkpt lat="50.51744" lon="1.57955">
        <ele>12</ele>
        <time>2021-08-12T16:35:21.672Z</time>
      </trkpt>
      <trkpt lat="50.51749" lon="1.57957">
        <ele>12</ele>
        <time>2021-08-12T16:35:26.677Z</time>
      </trkpt>
      <trkpt lat="50.51754" lon="1.57958">
        <ele>12</ele>
        <time>2021-08-12T16:35:30.685Z</time>
      </trkpt>
      <trkpt lat="50.5176" lon="1.57959">
        <ele>14</ele>
        <time>2021-08-12T16:35:35.679Z</time>
      </trkpt>
      <trkpt lat="50.51766" lon="1.57961">
        <ele>15</ele>
        <time>2021-08-12T16:35:40.685Z</time>
      </trkpt>
      <trkpt lat="50.51772" lon="1.57963">
        <ele>15</ele>
        <time>2021-08-12T16:35:45.682Z</time>
      </trkpt>
      <trkpt lat="50.51776" lon="1.57965">
        <ele>15</ele>
        <time>2021-08-12T16:35:49.685Z</time>
      </trkpt>
      <trkpt lat="50.51782" lon="1.57968">
        <ele>15</ele>
        <time>2021-08-12T16:35:54.684Z</time>
      </trkpt>
      <trkpt lat="50.51788" lon="1.5797">
        <ele>15</ele>
        <time>2021-08-12T16:35:59.677Z</time>
      </trkpt>
      <trkpt lat="50.51794" lon="1.57972">
        <ele>16</ele>
        <time>2021-08-12T16:36:04.684Z</time>
      </trkpt>
      <trkpt lat="50.51798" lon="1.57973">
        <ele>16</ele>
        <time>2021-08-12T16:36:08.672Z</time>
      </trkpt>
      <trkpt lat="50.51804" lon="1.57974">
        <ele>16</ele>
        <time>2021-08-12T16:36:13.675Z</time>
      </trkpt>
      <trkpt lat="50.51809" lon="1.57976">
        <ele>16</ele>
        <time>2021-08-12T16:36:17.677Z</time>
      </trkpt>
      <trkpt lat="50.51815" lon="1.57977">
        <ele>16</ele>
        <time>2021-08-12T16:36:22.671Z</time>
      </trkpt>
      <trkpt lat="50.51819" lon="1.57978">
        <ele>16</ele>
        <time>2021-08-12T16:36:26.681Z</time>
      </trkpt>
      <trkpt lat="50.51825" lon="1.5798">
        <ele>16</ele>
        <time>2021-08-12T16:36:31.680Z</time>
      </trkpt>
      <trkpt lat="50.51831" lon="1.57981">
        <ele>16</ele>
        <time>2021-08-12T16:36:36.665Z</time>
      </trkpt>
      <trkpt lat="50.51836" lon="1.57982">
        <ele>16</ele>
        <time>2021-08-12T16:36:40.678Z</time>
      </trkpt>
      <trkpt lat="50.5184" lon="1.57982">
        <ele>16</ele>
        <time>2021-08-12T16:36:44.677Z</time>
      </trkpt>
      <trkpt lat="50.51845" lon="1.57984">
        <ele>16</ele>
        <time>2021-08-12T16:36:49.686Z</time>
      </trkpt>
      <trkpt lat="50.51851" lon="1.57985">
        <ele>16</ele>
        <time>2021-08-12T16:36:54.687Z</time>
      </trkpt>
      <trkpt lat="50.51857" lon="1.57988">
        <ele>19</ele>
        <time>2021-08-12T16:36:59.677Z</time>
      </trkpt>
      <trkpt lat="50.5186" lon="1.57995">
        <ele>19</ele>
        <time>2021-08-12T16:37:04.667Z</time>
      </trkpt>
      <trkpt lat="50.5186" lon="1.58001">
        <ele>19</ele>
        <time>2021-08-12T16:37:08.678Z</time>
      </trkpt>
      <trkpt lat="50.5186" lon="1.58009">
        <ele>19</ele>
        <time>2021-08-12T16:37:13.675Z</time>
      </trkpt>
      <trkpt lat="50.51859" lon="1.58014">
        <ele>20</ele>
        <time>2021-08-12T16:37:17.668Z</time>
      </trkpt>
      <trkpt lat="50.51858" lon="1.58022">
        <ele>20</ele>
        <time>2021-08-12T16:37:22.676Z</time>
      </trkpt>
      <trkpt lat="50.51858" lon="1.58028">
        <ele>20</ele>
        <time>2021-08-12T16:37:26.675Z</time>
      </trkpt>
      <trkpt lat="50.51857" lon="1.58035">
        <ele>20</ele>
        <time>2021-08-12T16:37:31.675Z</time>
      </trkpt>
      <trkpt lat="50.51856" lon="1.58041">
        <ele>20</ele>
        <time>2021-08-12T16:37:35.680Z</time>
      </trkpt>
      <trkpt lat="50.51855" lon="1.58047">
        <ele>20</ele>
        <time>2021-08-12T16:37:39.674Z</time>
      </trkpt>
      <trkpt lat="50.51853" lon="1.58055">
        <ele>20</ele>
        <time>2021-08-12T16:37:44.673Z</time>
      </trkpt>
      <trkpt lat="50.51851" lon="1.58061">
        <ele>20</ele>
        <time>2021-08-12T16:37:48.681Z</time>
      </trkpt>
      <trkpt lat="50.51849" lon="1.58066">
        <ele>20</ele>
        <time>2021-08-12T16:37:52.694Z</time>
      </trkpt>
      <trkpt lat="50.51849" lon="1.58073">
        <ele>21</ele>
        <time>2021-08-12T16:37:57.681Z</time>
      </trkpt>
      <trkpt lat="50.51848" lon="1.58081">
        <ele>21</ele>
        <time>2021-08-12T16:38:02.688Z</time>
      </trkpt>
      <trkpt lat="50.51847" lon="1.5809">
        <ele>20</ele>
        <time>2021-08-12T16:38:07.679Z</time>
      </trkpt>
      <trkpt lat="50.51846" lon="1.58099">
        <ele>19</ele>
        <time>2021-08-12T16:38:12.678Z</time>
      </trkpt>
      <trkpt lat="50.51846" lon="1.58108">
        <ele>19</ele>
        <time>2021-08-12T16:38:17.675Z</time>
      </trkpt>
      <trkpt lat="50.51844" lon="1.58117">
        <ele>19</ele>
        <time>2021-08-12T16:38:22.679Z</time>
      </trkpt>
      <trkpt lat="50.51843" lon="1.58124">
        <ele>19</ele>
        <time>2021-08-12T16:38:26.682Z</time>
      </trkpt>
      <trkpt lat="50.51842" lon="1.58134">
        <ele>19</ele>
        <time>2021-08-12T16:38:31.687Z</time>
      </trkpt>
      <trkpt lat="50.51841" lon="1.58145">
        <ele>19</ele>
        <time>2021-08-12T16:38:36.680Z</time>
      </trkpt>
      <trkpt lat="50.51841" lon="1.58152">
        <ele>19</ele>
        <time>2021-08-12T16:38:40.684Z</time>
      </trkpt>
      <trkpt lat="50.51839" lon="1.5816">
        <ele>18</ele>
        <time>2021-08-12T16:38:45.684Z</time>
      </trkpt>
      <trkpt lat="50.51839" lon="1.58169">
        <ele>18</ele>
        <time>2021-08-12T16:38:50.673Z</time>
      </trkpt>
      <trkpt lat="50.51837" lon="1.58177">
        <ele>18</ele>
        <time>2021-08-12T16:38:55.669Z</time>
      </trkpt>
      <trkpt lat="50.51837" lon="1.58188">
        <ele>17</ele>
        <time>2021-08-12T16:39:00.675Z</time>
      </trkpt>
      <trkpt lat="50.51837" lon="1.58195">
        <ele>17</ele>
        <time>2021-08-12T16:39:04.677Z</time>
      </trkpt>
      <trkpt lat="50.51842" lon="1.58204">
        <ele>17</ele>
        <time>2021-08-12T16:39:09.685Z</time>
      </trkpt>
      <trkpt lat="50.51848" lon="1.58208">
        <ele>17</ele>
        <time>2021-08-12T16:39:14.686Z</time>
      </trkpt>
      <trkpt lat="50.51854" lon="1.58211">
        <ele>16</ele>
        <time>2021-08-12T16:39:19.674Z</time>
      </trkpt>
      <trkpt lat="50.5186" lon="1.58214">
        <ele>16</ele>
        <time>2021-08-12T16:39:24.676Z</time>
      </trkpt>
      <trkpt lat="50.51865" lon="1.58215">
        <ele>16</ele>
        <time>2021-08-12T16:39:28.675Z</time>
      </trkpt>
      <trkpt lat="50.51871" lon="1.58216">
        <ele>16</ele>
        <time>2021-08-12T16:39:33.681Z</time>
      </trkpt>
      <trkpt lat="50.51876" lon="1.58218">
        <ele>15</ele>
        <time>2021-08-12T16:39:37.668Z</time>
      </trkpt>
      <trkpt lat="50.51882" lon="1.5822">
        <ele>15</ele>
        <time>2021-08-12T16:39:42.673Z</time>
      </trkpt>
      <trkpt lat="50.51888" lon="1.58222">
        <ele>15</ele>
        <time>2021-08-12T16:39:47.670Z</time>
      </trkpt>
      <trkpt lat="50.51895" lon="1.58224">
        <ele>15</ele>
        <time>2021-08-12T16:39:52.683Z</time>
      </trkpt>
      <trkpt lat="50.51899" lon="1.58225">
        <ele>15</ele>
        <time>2021-08-12T16:39:56.674Z</time>
      </trkpt>
      <trkpt lat="50.51906" lon="1.58228">
        <ele>14</ele>
        <time>2021-08-12T16:40:01.670Z</time>
      </trkpt>
      <trkpt lat="50.5191" lon="1.58231">
        <ele>14</ele>
        <time>2021-08-12T16:40:05.673Z</time>
      </trkpt>
      <trkpt lat="50.51915" lon="1.58232">
        <ele>14</ele>
        <time>2021-08-12T16:40:09.685Z</time>
      </trkpt>
      <trkpt lat="50.51921" lon="1.58232">
        <ele>14</ele>
        <time>2021-08-12T16:40:14.665Z</time>
      </trkpt>
      <trkpt lat="50.51927" lon="1.58233">
        <ele>14</ele>
        <time>2021-08-12T16:40:19.675Z</time>
      </trkpt>
      <trkpt lat="50.51932" lon="1.58234">
        <ele>15</ele>
        <time>2021-08-12T16:40:24.669Z</time>
      </trkpt>
      <trkpt lat="50.51938" lon="1.58235">
        <ele>15</ele>
        <time>2021-08-12T16:40:29.679Z</time>
      </trkpt>
      <trkpt lat="50.51942" lon="1.58236">
        <ele>15</ele>
        <time>2021-08-12T16:40:33.680Z</time>
      </trkpt>
      <trkpt lat="50.51947" lon="1.58236">
        <ele>15</ele>
        <time>2021-08-12T16:40:37.675Z</time>
      </trkpt>
      <trkpt lat="50.51952" lon="1.58237">
        <ele>15</ele>
        <time>2021-08-12T16:40:42.671Z</time>
      </trkpt>
      <trkpt lat="50.51956" lon="1.5824">
        <ele>15</ele>
        <time>2021-08-12T16:40:46.671Z</time>
      </trkpt>
      <trkpt lat="50.51961" lon="1.58241">
        <ele>15</ele>
        <time>2021-08-12T16:40:50.674Z</time>
      </trkpt>
      <trkpt lat="50.51967" lon="1.58243">
        <ele>15</ele>
        <time>2021-08-12T16:40:55.676Z</time>
      </trkpt>
      <trkpt lat="50.51973" lon="1.58247">
        <ele>15</ele>
        <time>2021-08-12T16:41:00.672Z</time>
      </trkpt>
      <trkpt lat="50.51978" lon="1.58251">
        <ele>15</ele>
        <time>2021-08-12T16:41:04.685Z</time>
      </trkpt>
      <trkpt lat="50.5198" lon="1.58252">
        <ele>15</ele>
        <time>2021-08-12T16:41:09.675Z</time>
      </trkpt>
      <trkpt lat="50.51983" lon="1.58253">
        <ele>15</ele>
        <time>2021-08-12T16:41:13.706Z</time>
      </trkpt>
      <trkpt lat="50.51987" lon="1.58254">
        <ele>16</ele>
        <time>2021-08-12T16:41:17.677Z</time>
      </trkpt>
      <trkpt lat="50.51994" lon="1.58257">
        <ele>16</ele>
        <time>2021-08-12T16:41:22.681Z</time>
      </trkpt>
      <trkpt lat="50.51998" lon="1.58257">
        <ele>16</ele>
        <time>2021-08-12T16:41:26.676Z</time>
      </trkpt>
      <trkpt lat="50.52002" lon="1.58258">
        <ele>16</ele>
        <time>2021-08-12T16:41:30.695Z</time>
      </trkpt>
      <trkpt lat="50.52008" lon="1.5826">
        <ele>16</ele>
        <time>2021-08-12T16:41:35.679Z</time>
      </trkpt>
      <trkpt lat="50.52014" lon="1.58262">
        <ele>16</ele>
        <time>2021-08-12T16:41:40.682Z</time>
      </trkpt>
      <trkpt lat="50.52019" lon="1.58262">
        <ele>17</ele>
        <time>2021-08-12T16:41:45.680Z</time>
      </trkpt>
      <trkpt lat="50.52024" lon="1.58263">
        <ele>17</ele>
        <time>2021-08-12T16:41:50.685Z</time>
      </trkpt>
      <trkpt lat="50.5203" lon="1.58263">
        <ele>17</ele>
        <time>2021-08-12T16:41:55.675Z</time>
      </trkpt>
      <trkpt lat="50.52034" lon="1.58264">
        <ele>16</ele>
        <time>2021-08-12T16:41:59.674Z</time>
      </trkpt>
      <trkpt lat="50.52039" lon="1.58265">
        <ele>16</ele>
        <time>2021-08-12T16:42:04.683Z</time>
      </trkpt>
      <trkpt lat="50.52043" lon="1.58268">
        <ele>18</ele>
        <time>2021-08-12T16:42:08.677Z</time>
      </trkpt>
      <trkpt lat="50.52048" lon="1.58269">
        <ele>18</ele>
        <time>2021-08-12T16:42:13.665Z</time>
      </trkpt>
      <trkpt lat="50.52052" lon="1.58271">
        <ele>18</ele>
        <time>2021-08-12T16:42:17.692Z</time>
      </trkpt>
      <trkpt lat="50.52052" lon="1.58281">
        <ele>18</ele>
        <time>2021-08-12T16:42:22.676Z</time>
      </trkpt>
      <trkpt lat="50.52051" lon="1.58289">
        <ele>18</ele>
        <time>2021-08-12T16:42:27.672Z</time>
      </trkpt>
      <trkpt lat="50.52051" lon="1.58297">
        <ele>17</ele>
        <time>2021-08-12T16:42:32.680Z</time>
      </trkpt>
      <trkpt lat="50.5205" lon="1.58304">
        <ele>17</ele>
        <time>2021-08-12T16:42:37.682Z</time>
      </trkpt>
      <trkpt lat="50.52049" lon="1.58312">
        <ele>17</ele>
        <time>2021-08-12T16:42:42.690Z</time>
      </trkpt>
      <trkpt lat="50.52048" lon="1.5832">
        <ele>17</ele>
        <time>2021-08-12T16:42:47.676Z</time>
      </trkpt>
      <trkpt lat="50.52047" lon="1.58328">
        <ele>17</ele>
        <time>2021-08-12T16:42:52.681Z</time>
      </trkpt>
      <trkpt lat="50.5205" lon="1.58333">
        <ele>17</ele>
        <time>2021-08-12T16:42:56.686Z</time>
      </trkpt>
      <trkpt lat="50.52056" lon="1.58337">
        <ele>17</ele>
        <time>2021-08-12T16:43:01.687Z</time>
      </trkpt>
      <trkpt lat="50.52062" lon="1.58342">
        <ele>17</ele>
        <time>2021-08-12T16:43:06.687Z</time>
      </trkpt>
      <trkpt lat="50.52067" lon="1.58345">
        <ele>17</ele>
        <time>2021-08-12T16:43:11.677Z</time>
      </trkpt>
      <trkpt lat="50.52072" lon="1.58345">
        <ele>18</ele>
        <time>2021-08-12T16:43:15.686Z</time>
      </trkpt>
      <trkpt lat="50.52077" lon="1.58343">
        <ele>18</ele>
        <time>2021-08-12T16:43:20.677Z</time>
      </trkpt>
      <trkpt lat="50.52083" lon="1.58345">
        <ele>18</ele>
        <time>2021-08-12T16:43:25.672Z</time>
      </trkpt>
      <trkpt lat="50.52088" lon="1.58347">
        <ele>18</ele>
        <time>2021-08-12T16:43:30.677Z</time>
      </trkpt>
      <trkpt lat="50.52093" lon="1.58346">
        <ele>18</ele>
        <time>2021-08-12T16:43:35.679Z</time>
      </trkpt>
      <trkpt lat="50.52096" lon="1.58343">
        <ele>18</ele>
        <time>2021-08-12T16:43:40.684Z</time>
      </trkpt>
      <trkpt lat="50.52099" lon="1.58345">
        <ele>16</ele>
        <time>2021-08-12T16:43:45.671Z</time>
      </trkpt>
      <trkpt lat="50.52101" lon="1.58351">
        <ele>17</ele>
        <time>2021-08-12T16:44:12.672Z</time>
      </trkpt>
      <trkpt lat="50.52103" lon="1.5835">
        <ele>17</ele>
        <time>2021-08-12T16:44:17.673Z</time>
      </trkpt>
      <trkpt lat="50.52106" lon="1.58354">
        <ele>17</ele>
        <time>2021-08-12T16:44:22.677Z</time>
      </trkpt>
      <trkpt lat="50.52111" lon="1.58355">
        <ele>17</ele>
        <time>2021-08-12T16:44:27.667Z</time>
      </trkpt>
      <trkpt lat="50.52113" lon="1.58358">
        <ele>17</ele>
        <time>2021-08-12T16:44:32.675Z</time>
      </trkpt>
      <trkpt lat="50.52115" lon="1.5836">
        <ele>17</ele>
        <time>2021-08-12T16:44:36.678Z</time>
      </trkpt>
      <trkpt lat="50.52118" lon="1.58361">
        <ele>17</ele>
        <time>2021-08-12T16:44:40.677Z</time>
      </trkpt>
      <trkpt lat="50.52124" lon="1.58362">
        <ele>17</ele>
        <time>2021-08-12T16:44:45.680Z</time>
      </trkpt>
      <trkpt lat="50.52129" lon="1.58362">
        <ele>17</ele>
        <time>2021-08-12T16:44:50.675Z</time>
      </trkpt>
      <trkpt lat="50.5213" lon="1.58365">
        <ele>17</ele>
        <time>2021-08-12T16:48:22.667Z</time>
      </trkpt>
      <trkpt lat="50.5213" lon="1.58367">
        <ele>17</ele>
        <time>2021-08-12T16:48:27.673Z</time>
      </trkpt>
      <trkpt lat="50.52134" lon="1.58369">
        <ele>17</ele>
        <time>2021-08-12T16:48:31.671Z</time>
      </trkpt>
      <trkpt lat="50.52138" lon="1.58371">
        <ele>17</ele>
        <time>2021-08-12T16:48:35.681Z</time>
      </trkpt>
      <trkpt lat="50.52142" lon="1.58374">
        <ele>17</ele>
        <time>2021-08-12T16:48:40.673Z</time>
      </trkpt>
      <trkpt lat="50.52149" lon="1.58382">
        <ele>16</ele>
        <time>2021-08-12T16:49:04.684Z</time>
      </trkpt>
      <trkpt lat="50.52149" lon="1.58382">
        <ele>16</ele>
        <time>2021-08-12T16:49:09.678Z</time>
      </trkpt>
      <trkpt lat="50.52149" lon="1.58382">
        <ele>16</ele>
        <time>2021-08-12T16:49:13.682Z</time>
      </trkpt>
      <trkpt lat="50.5215" lon="1.58382">
        <ele>16</ele>
        <time>2021-08-12T16:49:18.682Z</time>
      </trkpt>
      <trkpt lat="50.52151" lon="1.58384">
        <ele>16</ele>
        <time>2021-08-12T16:49:22.680Z</time>
      </trkpt>
      <trkpt lat="50.52159" lon="1.58371">
        <ele>17</ele>
        <time>2021-08-12T16:54:07.669Z</time>
      </trkpt>
      <trkpt lat="50.52159" lon="1.58372">
        <ele>17</ele>
        <time>2021-08-12T16:54:11.672Z</time>
      </trkpt>
      <trkpt lat="50.52159" lon="1.58369">
        <ele>17</ele>
        <time>2021-08-12T16:54:15.664Z</time>
      </trkpt>
      <trkpt lat="50.5216" lon="1.58368">
        <ele>17</ele>
        <time>2021-08-12T16:54:20.672Z</time>
      </trkpt>
      <trkpt lat="50.52163" lon="1.5837">
        <ele>17</ele>
        <time>2021-08-12T16:54:25.668Z</time>
      </trkpt>
      <trkpt lat="50.52166" lon="1.58369">
        <ele>17</ele>
        <time>2021-08-12T16:54:30.674Z</time>
      </trkpt>
      <trkpt lat="50.5217" lon="1.58375">
        <ele>17</ele>
        <time>2021-08-12T16:54:34.663Z</time>
      </trkpt>
      <trkpt lat="50.52173" lon="1.58378">
        <ele>17</ele>
        <time>2021-08-12T16:54:38.673Z</time>
      </trkpt>
      <trkpt lat="50.52177" lon="1.58382">
        <ele>17</ele>
        <time>2021-08-12T16:54:42.670Z</time>
      </trkpt>
      <trkpt lat="50.52183" lon="1.58392">
        <ele>17</ele>
        <time>2021-08-12T16:54:56.676Z</time>
      </trkpt>
      <trkpt lat="50.52183" lon="1.58392">
        <ele>17</ele>
        <time>2021-08-12T16:55:00.675Z</time>
      </trkpt>
      <trkpt lat="50.52184" lon="1.58392">
        <ele>17</ele>
        <time>2021-08-12T16:55:04.684Z</time>
      </trkpt>
      <trkpt lat="50.52189" lon="1.58396">
        <ele>17</ele>
        <time>2021-08-12T16:55:09.672Z</time>
      </trkpt>
      <trkpt lat="50.52192" lon="1.58398">
        <ele>17</ele>
        <time>2021-08-12T16:55:13.668Z</time>
      </trkpt>
      <trkpt lat="50.52199" lon="1.58401">
        <ele>17</ele>
        <time>2021-08-12T16:55:22.675Z</time>
      </trkpt>
      <trkpt lat="50.52199" lon="1.58399">
        <ele>17</ele>
        <time>2021-08-12T16:55:26.683Z</time>
      </trkpt>
      <trkpt lat="50.52199" lon="1.584">
        <ele>17</ele>
        <time>2021-08-12T16:55:30.676Z</time>
      </trkpt>
      <trkpt lat="50.52202" lon="1.58395">
        <ele>17</ele>
        <time>2021-08-12T16:55:35.679Z</time>
      </trkpt>
      <trkpt lat="50.52206" lon="1.58394">
        <ele>17</ele>
        <time>2021-08-12T16:55:40.681Z</time>
      </trkpt>
      <trkpt lat="50.5221" lon="1.58395">
        <ele>16</ele>
        <time>2021-08-12T16:55:44.695Z</time>
      </trkpt>
      <trkpt lat="50.52214" lon="1.58395">
        <ele>16</ele>
        <time>2021-08-12T16:55:48.668Z</time>
      </trkpt>
      <trkpt lat="50.52216" lon="1.58393">
        <ele>16</ele>
        <time>2021-08-12T16:55:52.692Z</time>
      </trkpt>
      <trkpt lat="50.5222" lon="1.58393">
        <ele>16</ele>
        <time>2021-08-12T16:55:57.670Z</time>
      </trkpt>
      <trkpt lat="50.52223" lon="1.58393">
        <ele>16</ele>
        <time>2021-08-12T16:56:01.672Z</time>
      </trkpt>
      <trkpt lat="50.52226" lon="1.58391">
        <ele>16</ele>
        <time>2021-08-12T16:56:05.673Z</time>
      </trkpt>
      <trkpt lat="50.52228" lon="1.58389">
        <ele>16</ele>
        <time>2021-08-12T16:56:09.671Z</time>
      </trkpt>
      <trkpt lat="50.5223" lon="1.58387">
        <ele>16</ele>
        <time>2021-08-12T16:56:13.672Z</time>
      </trkpt>
      <trkpt lat="50.52235" lon="1.58391">
        <ele>16</ele>
        <time>2021-08-12T16:56:18.668Z</time>
      </trkpt>
      <trkpt lat="50.52238" lon="1.58392">
        <ele>16</ele>
        <time>2021-08-12T16:56:22.671Z</time>
      </trkpt>
      <trkpt lat="50.52243" lon="1.58396">
        <ele>16</ele>
        <time>2021-08-12T16:56:27.674Z</time>
      </trkpt>
      <trkpt lat="50.52247" lon="1.58403">
        <ele>16</ele>
        <time>2021-08-12T16:56:31.681Z</time>
      </trkpt>
      <trkpt lat="50.5225" lon="1.58409">
        <ele>16</ele>
        <time>2021-08-12T16:56:36.679Z</time>
      </trkpt>
      <trkpt lat="50.52256" lon="1.58421">
        <ele>16</ele>
        <time>2021-08-12T16:56:41.685Z</time>
      </trkpt>
      <trkpt lat="50.5226" lon="1.58424">
        <ele>16</ele>
        <time>2021-08-12T16:56:46.680Z</time>
      </trkpt>
      <trkpt lat="50.52263" lon="1.58426">
        <ele>16</ele>
        <time>2021-08-12T16:56:50.674Z</time>
      </trkpt>
      <trkpt lat="50.52266" lon="1.58429">
        <ele>16</ele>
        <time>2021-08-12T16:56:54.679Z</time>
      </trkpt>
      <trkpt lat="50.5227" lon="1.58433">
        <ele>15</ele>
        <time>2021-08-12T16:56:59.679Z</time>
      </trkpt>
      <trkpt lat="50.52274" lon="1.58436">
        <ele>15</ele>
        <time>2021-08-12T16:57:04.690Z</time>
      </trkpt>
      <trkpt lat="50.52278" lon="1.58439">
        <ele>15</ele>
        <time>2021-08-12T16:57:09.669Z</time>
      </trkpt>
      <trkpt lat="50.52282" lon="1.58444">
        <ele>15</ele>
        <time>2021-08-12T16:57:13.677Z</time>
      </trkpt>
      <trkpt lat="50.52293" lon="1.58453">
        <ele>14</ele>
        <time>2021-08-12T16:57:35.690Z</time>
      </trkpt>
      <trkpt lat="50.52295" lon="1.58456">
        <ele>14</ele>
        <time>2021-08-12T16:57:40.679Z</time>
      </trkpt>
      <trkpt lat="50.52298" lon="1.5846">
        <ele>15</ele>
        <time>2021-08-12T16:57:45.673Z</time>
      </trkpt>
      <trkpt lat="50.52299" lon="1.58463">
        <ele>15</ele>
        <time>2021-08-12T16:57:49.679Z</time>
      </trkpt>
      <trkpt lat="50.52302" lon="1.58464">
        <ele>15</ele>
        <time>2021-08-12T16:57:53.680Z</time>
      </trkpt>
      <trkpt lat="50.52307" lon="1.58462">
        <ele>15</ele>
        <time>2021-08-12T16:57:57.691Z</time>
      </trkpt>
      <trkpt lat="50.52311" lon="1.58457">
        <ele>14</ele>
        <time>2021-08-12T16:58:02.672Z</time>
      </trkpt>
      <trkpt lat="50.52314" lon="1.58451">
        <ele>14</ele>
        <time>2021-08-12T16:58:07.669Z</time>
      </trkpt>
      <trkpt lat="50.52316" lon="1.58447">
        <ele>14</ele>
        <time>2021-08-12T16:58:11.676Z</time>
      </trkpt>
      <trkpt lat="50.52319" lon="1.58443">
        <ele>14</ele>
        <time>2021-08-12T16:58:15.678Z</time>
      </trkpt>
      <trkpt lat="50.52321" lon="1.58448">
        <ele>14</ele>
        <time>2021-08-12T16:58:20.670Z</time>
      </trkpt>
      <trkpt lat="50.52318" lon="1.58452">
        <ele>14</ele>
        <time>2021-08-12T16:58:24.666Z</time>
      </trkpt>
      <trkpt lat="50.52314" lon="1.58455">
        <ele>14</ele>
        <time>2021-08-12T16:58:28.678Z</time>
      </trkpt>
      <trkpt lat="50.52313" lon="1.58454">
        <ele>14</ele>
        <time>2021-08-12T16:58:32.668Z</time>
      </trkpt>
      <trkpt lat="50.52312" lon="1.58453">
        <ele>14</ele>
        <time>2021-08-12T16:58:37.671Z</time>
      </trkpt>
      <trkpt lat="50.52311" lon="1.58449">
        <ele>14</ele>
        <time>2021-08-12T16:58:42.668Z</time>
      </trkpt>
      <trkpt lat="50.52316" lon="1.58425">
        <ele>15</ele>
        <time>2021-08-12T16:58:47.667Z</time>
      </trkpt>
      <trkpt lat="50.52308" lon="1.58411">
        <ele>15</ele>
        <time>2021-08-12T16:59:30.666Z</time>
      </trkpt>
      <trkpt lat="50.52309" lon="1.58411">
        <ele>15</ele>
        <time>2021-08-12T16:59:34.670Z</time>
      </trkpt>
      <trkpt lat="50.52308" lon="1.5841">
        <ele>15</ele>
        <time>2021-08-12T16:59:39.676Z</time>
      </trkpt>
      <trkpt lat="50.5231" lon="1.58435">
        <ele>14</ele>
        <time>2021-08-12T16:59:44.671Z</time>
      </trkpt>
      <trkpt lat="50.52311" lon="1.58436">
        <ele>14</ele>
        <time>2021-08-12T16:59:48.672Z</time>
      </trkpt>
      <trkpt lat="50.52311" lon="1.58437">
        <ele>14</ele>
        <time>2021-08-12T16:59:52.676Z</time>
      </trkpt>
      <trkpt lat="50.52316" lon="1.5844">
        <ele>14</ele>
        <time>2021-08-12T16:59:57.661Z</time>
      </trkpt>
      <trkpt lat="50.5232" lon="1.58437">
        <ele>14</ele>
        <time>2021-08-12T17:00:01.676Z</time>
      </trkpt>
      <trkpt lat="50.52321" lon="1.58432">
        <ele>14</ele>
        <time>2021-08-12T17:00:06.666Z</time>
      </trkpt>
      <trkpt lat="50.52319" lon="1.58428">
        <ele>15</ele>
        <time>2021-08-12T17:00:49.666Z</time>
      </trkpt>
      <trkpt lat="50.52317" lon="1.58433">
        <ele>14</ele>
        <time>2021-08-12T17:00:53.668Z</time>
      </trkpt>
      <trkpt lat="50.52316" lon="1.58441">
        <ele>14</ele>
        <time>2021-08-12T17:00:57.670Z</time>
      </trkpt>
      <trkpt lat="50.52316" lon="1.58446">
        <ele>14</ele>
        <time>2021-08-12T17:01:02.672Z</time>
      </trkpt>
      <trkpt lat="50.52312" lon="1.58453">
        <ele>14</ele>
        <time>2021-08-12T17:01:07.674Z</time>
      </trkpt>
      <trkpt lat="50.52313" lon="1.5846">
        <ele>15</ele>
        <time>2021-08-12T17:01:11.678Z</time>
      </trkpt>
      <trkpt lat="50.52314" lon="1.58465">
        <ele>15</ele>
        <time>2021-08-12T17:01:15.682Z</time>
      </trkpt>
      <trkpt lat="50.52316" lon="1.5847">
        <ele>15</ele>
        <time>2021-08-12T17:01:19.673Z</time>
      </trkpt>
      <trkpt lat="50.5232" lon="1.58473">
        <ele>15</ele>
        <time>2021-08-12T17:01:24.669Z</time>
      </trkpt>
      <trkpt lat="50.52323" lon="1.58476">
        <ele>15</ele>
        <time>2021-08-12T17:01:28.677Z</time>
      </trkpt>
      <trkpt lat="50.52326" lon="1.58479">
        <ele>15</ele>
        <time>2021-08-12T17:01:32.672Z</time>
      </trkpt>
      <trkpt lat="50.5233" lon="1.58483">
        <ele>15</ele>
        <time>2021-08-12T17:01:37.673Z</time>
      </trkpt>
      <trkpt lat="50.52333" lon="1.58489">
        <ele>15</ele>
        <time>2021-08-12T17:01:42.672Z</time>
      </trkpt>
      <trkpt lat="50.52338" lon="1.58492">
        <ele>15</ele>
        <time>2021-08-12T17:01:47.673Z</time>
      </trkpt>
      <trkpt lat="50.52342" lon="1.58495">
        <ele>15</ele>
        <time>2021-08-12T17:01:51.666Z</time>
      </trkpt>
      <trkpt lat="50.52346" lon="1.58498">
        <ele>15</ele>
        <time>2021-08-12T17:01:55.672Z</time>
      </trkpt>
      <trkpt lat="50.52349" lon="1.585">
        <ele>16</ele>
        <time>2021-08-12T17:01:59.672Z</time>
      </trkpt>
      <trkpt lat="50.52354" lon="1.58504">
        <ele>16</ele>
        <time>2021-08-12T17:02:04.674Z</time>
      </trkpt>
      <trkpt lat="50.52358" lon="1.58508">
        <ele>16</ele>
        <time>2021-08-12T17:02:08.672Z</time>
      </trkpt>
      <trkpt lat="50.52361" lon="1.58511">
        <ele>16</ele>
        <time>2021-08-12T17:02:12.671Z</time>
      </trkpt>
      <trkpt lat="50.52368" lon="1.58516">
        <ele>15</ele>
        <time>2021-08-12T17:02:17.676Z</time>
      </trkpt>
      <trkpt lat="50.52373" lon="1.58513">
        <ele>16</ele>
        <time>2021-08-12T17:02:22.670Z</time>
      </trkpt>
      <trkpt lat="50.52377" lon="1.58507">
        <ele>15</ele>
        <time>2021-08-12T17:02:27.673Z</time>
      </trkpt>
      <trkpt lat="50.52379" lon="1.58504">
        <ele>15</ele>
        <time>2021-08-12T17:02:31.678Z</time>
      </trkpt>
      <trkpt lat="50.52382" lon="1.58498">
        <ele>15</ele>
        <time>2021-08-12T17:02:36.692Z</time>
      </trkpt>
      <trkpt lat="50.52384" lon="1.58493">
        <ele>15</ele>
        <time>2021-08-12T17:02:40.691Z</time>
      </trkpt>
      <trkpt lat="50.52387" lon="1.58486">
        <ele>14</ele>
        <time>2021-08-12T17:02:45.680Z</time>
      </trkpt>
      <trkpt lat="50.52387" lon="1.58481">
        <ele>14</ele>
        <time>2021-08-12T17:02:49.668Z</time>
      </trkpt>
      <trkpt lat="50.5239" lon="1.58474">
        <ele>14</ele>
        <time>2021-08-12T17:02:54.676Z</time>
      </trkpt>
      <trkpt lat="50.52393" lon="1.58471">
        <ele>14</ele>
        <time>2021-08-12T17:02:59.676Z</time>
      </trkpt>
      <trkpt lat="50.52395" lon="1.58469">
        <ele>14</ele>
        <time>2021-08-12T17:03:03.680Z</time>
      </trkpt>
      <trkpt lat="50.52398" lon="1.58465">
        <ele>14</ele>
        <time>2021-08-12T17:03:07.676Z</time>
      </trkpt>
      <trkpt lat="50.52401" lon="1.58461">
        <ele>14</ele>
        <time>2021-08-12T17:03:11.677Z</time>
      </trkpt>
      <trkpt lat="50.52403" lon="1.58455">
        <ele>14</ele>
        <time>2021-08-12T17:03:16.673Z</time>
      </trkpt>
      <trkpt lat="50.52404" lon="1.58447">
        <ele>14</ele>
        <time>2021-08-12T17:03:21.674Z</time>
      </trkpt>
      <trkpt lat="50.52406" lon="1.5844">
        <ele>14</ele>
        <time>2021-08-12T17:03:25.669Z</time>
      </trkpt>
      <trkpt lat="50.52408" lon="1.58434">
        <ele>14</ele>
        <time>2021-08-12T17:03:29.675Z</time>
      </trkpt>
      <trkpt lat="50.52409" lon="1.58426">
        <ele>15</ele>
        <time>2021-08-12T17:03:34.673Z</time>
      </trkpt>
      <trkpt lat="50.52411" lon="1.5842">
        <ele>15</ele>
        <time>2021-08-12T17:03:38.688Z</time>
      </trkpt>
      <trkpt lat="50.52412" lon="1.58414">
        <ele>15</ele>
        <time>2021-08-12T17:03:42.672Z</time>
      </trkpt>
      <trkpt lat="50.52411" lon="1.58408">
        <ele>15</ele>
        <time>2021-08-12T17:03:46.688Z</time>
      </trkpt>
      <trkpt lat="50.52414" lon="1.58403">
        <ele>15</ele>
        <time>2021-08-12T17:03:51.674Z</time>
      </trkpt>
      <trkpt lat="50.52417" lon="1.584">
        <ele>16</ele>
        <time>2021-08-12T17:03:56.681Z</time>
      </trkpt>
      <trkpt lat="50.52419" lon="1.58396">
        <ele>16</ele>
        <time>2021-08-12T17:04:00.676Z</time>
      </trkpt>
      <trkpt lat="50.52422" lon="1.5839">
        <ele>16</ele>
        <time>2021-08-12T17:04:04.677Z</time>
      </trkpt>
      <trkpt lat="50.52423" lon="1.58368">
        <ele>15</ele>
        <time>2021-08-12T17:06:35.670Z</time>
      </trkpt>
      <trkpt lat="50.52423" lon="1.58368">
        <ele>15</ele>
        <time>2021-08-12T17:06:40.668Z</time>
      </trkpt>
      <trkpt lat="50.52425" lon="1.58367">
        <ele>15</ele>
        <time>2021-08-12T17:06:44.671Z</time>
      </trkpt>
      <trkpt lat="50.52425" lon="1.58367">
        <ele>15</ele>
        <time>2021-08-12T17:06:48.675Z</time>
      </trkpt>
      <trkpt lat="50.52425" lon="1.58367">
        <ele>15</ele>
        <time>2021-08-12T17:06:52.669Z</time>
      </trkpt>
      <trkpt lat="50.52425" lon="1.58367">
        <ele>15</ele>
        <time>2021-08-12T17:06:56.666Z</time>
      </trkpt>
      <trkpt lat="50.52427" lon="1.58366">
        <ele>15</ele>
        <time>2021-08-12T17:07:01.671Z</time>
      </trkpt>
      <trkpt lat="50.52427" lon="1.5836">
        <ele>15</ele>
        <time>2021-08-12T17:07:05.668Z</time>
      </trkpt>
      <trkpt lat="50.52424" lon="1.58357">
        <ele>15</ele>
        <time>2021-08-12T17:07:10.674Z</time>
      </trkpt>
      <trkpt lat="50.52416" lon="1.58369">
        <ele>15</ele>
        <time>2021-08-12T17:07:14.668Z</time>
      </trkpt>
      <trkpt lat="50.52414" lon="1.58374">
        <ele>15</ele>
        <time>2021-08-12T17:09:06.668Z</time>
      </trkpt>
      <trkpt lat="50.52414" lon="1.58369">
        <ele>15</ele>
        <time>2021-08-12T17:09:11.661Z</time>
      </trkpt>
      <trkpt lat="50.52413" lon="1.58363">
        <ele>15</ele>
        <time>2021-08-12T17:09:22.677Z</time>
      </trkpt>
      <trkpt lat="50.524" lon="1.58367">
        <ele>15</ele>
        <time>2021-08-12T17:09:27.672Z</time>
      </trkpt>
      <trkpt lat="50.524" lon="1.58367">
        <ele>15</ele>
        <time>2021-08-12T17:09:31.669Z</time>
      </trkpt>
      <trkpt lat="50.52399" lon="1.58367">
        <ele>15</ele>
        <time>2021-08-12T17:09:48.671Z</time>
      </trkpt>
      <trkpt lat="50.52397" lon="1.58368">
        <ele>15</ele>
        <time>2021-08-12T17:09:52.664Z</time>
      </trkpt>
      <trkpt lat="50.52432" lon="1.58361">
        <ele>15</ele>
        <time>2021-08-12T17:12:03.674Z</time>
      </trkpt>
      <trkpt lat="50.52433" lon="1.58365">
        <ele>15</ele>
        <time>2021-08-12T17:15:17.670Z</time>
      </trkpt>
      <trkpt lat="50.52439" lon="1.58372">
        <ele>15</ele>
        <time>2021-08-12T18:04:36.670Z</time>
      </trkpt>
      <trkpt lat="50.52437" lon="1.58376">
        <ele>15</ele>
        <time>2021-08-12T18:04:40.667Z</time>
      </trkpt>
      <trkpt lat="50.52434" lon="1.58382">
        <ele>15</ele>
        <time>2021-08-12T18:04:45.668Z</time>
      </trkpt>
      <trkpt lat="50.52432" lon="1.58385">
        <ele>15</ele>
        <time>2021-08-12T18:04:49.676Z</time>
      </trkpt>
      <trkpt lat="50.52429" lon="1.5839">
        <ele>16</ele>
        <time>2021-08-12T18:04:54.664Z</time>
      </trkpt>
      <trkpt lat="50.52428" lon="1.58396">
        <ele>16</ele>
        <time>2021-08-12T18:04:58.669Z</time>
      </trkpt>
      <trkpt lat="50.52425" lon="1.58402">
        <ele>16</ele>
        <time>2021-08-12T18:05:03.666Z</time>
      </trkpt>
      <trkpt lat="50.52422" lon="1.58407">
        <ele>15</ele>
        <time>2021-08-12T18:05:07.670Z</time>
      </trkpt>
      <trkpt lat="50.5242" lon="1.58412">
        <ele>15</ele>
        <time>2021-08-12T18:05:12.665Z</time>
      </trkpt>
      <trkpt lat="50.52419" lon="1.58418">
        <ele>15</ele>
        <time>2021-08-12T18:05:16.670Z</time>
      </trkpt>
      <trkpt lat="50.52417" lon="1.58424">
        <ele>15</ele>
        <time>2021-08-12T18:05:21.669Z</time>
      </trkpt>
      <trkpt lat="50.52416" lon="1.58432">
        <ele>14</ele>
        <time>2021-08-12T18:05:26.687Z</time>
      </trkpt>
      <trkpt lat="50.52413" lon="1.58439">
        <ele>14</ele>
        <time>2021-08-12T18:05:31.668Z</time>
      </trkpt>
      <trkpt lat="50.52411" lon="1.58447">
        <ele>14</ele>
        <time>2021-08-12T18:05:36.673Z</time>
      </trkpt>
      <trkpt lat="50.52407" lon="1.58452">
        <ele>14</ele>
        <time>2021-08-12T18:05:41.672Z</time>
      </trkpt>
      <trkpt lat="50.52402" lon="1.58452">
        <ele>14</ele>
        <time>2021-08-12T18:05:46.663Z</time>
      </trkpt>
      <trkpt lat="50.52399" lon="1.58452">
        <ele>14</ele>
        <time>2021-08-12T18:05:50.672Z</time>
      </trkpt>
      <trkpt lat="50.52392" lon="1.5845">
        <ele>14</ele>
        <time>2021-08-12T18:05:55.669Z</time>
      </trkpt>
      <trkpt lat="50.52387" lon="1.58447">
        <ele>14</ele>
        <time>2021-08-12T18:06:00.670Z</time>
      </trkpt>
      <trkpt lat="50.52383" lon="1.58444">
        <ele>14</ele>
        <time>2021-08-12T18:06:05.671Z</time>
      </trkpt>
      <trkpt lat="50.52378" lon="1.58442">
        <ele>14</ele>
        <time>2021-08-12T18:06:10.664Z</time>
      </trkpt>
      <trkpt lat="50.52375" lon="1.5844">
        <ele>14</ele>
        <time>2021-08-12T18:06:14.673Z</time>
      </trkpt>
      <trkpt lat="50.52371" lon="1.58438">
        <ele>14</ele>
        <time>2021-08-12T18:06:18.677Z</time>
      </trkpt>
      <trkpt lat="50.52367" lon="1.58433">
        <ele>14</ele>
        <time>2021-08-12T18:06:23.667Z</time>
      </trkpt>
      <trkpt lat="50.52364" lon="1.5843">
        <ele>15</ele>
        <time>2021-08-12T18:06:27.666Z</time>
      </trkpt>
      <trkpt lat="50.5236" lon="1.58426">
        <ele>15</ele>
        <time>2021-08-12T18:06:32.668Z</time>
      </trkpt>
      <trkpt lat="50.52356" lon="1.58421">
        <ele>15</ele>
        <time>2021-08-12T18:06:36.668Z</time>
      </trkpt>
      <trkpt lat="50.52352" lon="1.58417">
        <ele>15</ele>
        <time>2021-08-12T18:06:40.667Z</time>
      </trkpt>
      <trkpt lat="50.52347" lon="1.58413">
        <ele>15</ele>
        <time>2021-08-12T18:06:45.667Z</time>
      </trkpt>
      <trkpt lat="50.52342" lon="1.58411">
        <ele>15</ele>
        <time>2021-08-12T18:06:50.671Z</time>
      </trkpt>
      <trkpt lat="50.52338" lon="1.58411">
        <ele>15</ele>
        <time>2021-08-12T18:06:55.672Z</time>
      </trkpt>
      <trkpt lat="50.52336" lon="1.58413">
        <ele>15</ele>
        <time>2021-08-12T18:06:59.668Z</time>
      </trkpt>
      <trkpt lat="50.52333" lon="1.58418">
        <ele>15</ele>
        <time>2021-08-12T18:07:04.680Z</time>
      </trkpt>
      <trkpt lat="50.52333" lon="1.58423">
        <ele>15</ele>
        <time>2021-08-12T18:07:27.668Z</time>
      </trkpt>
      <trkpt lat="50.52335" lon="1.58417">
        <ele>15</ele>
        <time>2021-08-12T18:07:32.664Z</time>
      </trkpt>
      <trkpt lat="50.52336" lon="1.58412">
        <ele>15</ele>
        <time>2021-08-12T18:07:37.665Z</time>
      </trkpt>
      <trkpt lat="50.52339" lon="1.58408">
        <ele>15</ele>
        <time>2021-08-12T18:07:42.673Z</time>
      </trkpt>
      <trkpt lat="50.52339" lon="1.58403">
        <ele>15</ele>
        <time>2021-08-12T18:07:47.670Z</time>
      </trkpt>
      <trkpt lat="50.52339" lon="1.58397">
        <ele>15</ele>
        <time>2021-08-12T18:07:52.673Z</time>
      </trkpt>
      <trkpt lat="50.52342" lon="1.58396">
        <ele>15</ele>
        <time>2021-08-12T18:07:56.676Z</time>
      </trkpt>
      <trkpt lat="50.52345" lon="1.5839">
        <ele>15</ele>
        <time>2021-08-12T18:08:01.665Z</time>
      </trkpt>
      <trkpt lat="50.52347" lon="1.58384">
        <ele>15</ele>
        <time>2021-08-12T18:08:06.667Z</time>
      </trkpt>
      <trkpt lat="50.5235" lon="1.58377">
        <ele>15</ele>
        <time>2021-08-12T18:08:11.662Z</time>
      </trkpt>
      <trkpt lat="50.52351" lon="1.58373">
        <ele>15</ele>
        <time>2021-08-12T18:08:15.674Z</time>
      </trkpt>
      <trkpt lat="50.52353" lon="1.58366">
        <ele>15</ele>
        <time>2021-08-12T18:08:20.676Z</time>
      </trkpt>
      <trkpt lat="50.52355" lon="1.58358">
        <ele>15</ele>
        <time>2021-08-12T18:08:25.663Z</time>
      </trkpt>
      <trkpt lat="50.52356" lon="1.58351">
        <ele>15</ele>
        <time>2021-08-12T18:08:30.674Z</time>
      </trkpt>
      <trkpt lat="50.52358" lon="1.58345">
        <ele>16</ele>
        <time>2021-08-12T18:08:34.674Z</time>
      </trkpt>
      <trkpt lat="50.52359" lon="1.58339">
        <ele>16</ele>
        <time>2021-08-12T18:08:38.672Z</time>
      </trkpt>
      <trkpt lat="50.52361" lon="1.58333">
        <ele>16</ele>
        <time>2021-08-12T18:08:43.672Z</time>
      </trkpt>
      <trkpt lat="50.52362" lon="1.58326">
        <ele>16</ele>
        <time>2021-08-12T18:08:47.668Z</time>
      </trkpt>
      <trkpt lat="50.52365" lon="1.58319">
        <ele>16</ele>
        <time>2021-08-12T18:08:52.678Z</time>
      </trkpt>
      <trkpt lat="50.52367" lon="1.58312">
        <ele>16</ele>
        <time>2021-08-12T18:08:57.663Z</time>
      </trkpt>
      <trkpt lat="50.52369" lon="1.58303">
        <ele>16</ele>
        <time>2021-08-12T18:09:02.670Z</time>
      </trkpt>
      <trkpt lat="50.5237" lon="1.58296">
        <ele>16</ele>
        <time>2021-08-12T18:09:06.664Z</time>
      </trkpt>
      <trkpt lat="50.52372" lon="1.5829">
        <ele>16</ele>
        <time>2021-08-12T18:09:10.672Z</time>
      </trkpt>
      <trkpt lat="50.52371" lon="1.58282">
        <ele>16</ele>
        <time>2021-08-12T18:09:15.664Z</time>
      </trkpt>
      <trkpt lat="50.5237" lon="1.5828">
        <ele>16</ele>
        <time>2021-08-12T18:09:19.674Z</time>
      </trkpt>
      <trkpt lat="50.52371" lon="1.58279">
        <ele>16</ele>
        <time>2021-08-12T18:09:24.681Z</time>
      </trkpt>
      <trkpt lat="50.52369" lon="1.58275">
        <ele>16</ele>
        <time>2021-08-12T18:09:29.661Z</time>
      </trkpt>
      <trkpt lat="50.52367" lon="1.58272">
        <ele>16</ele>
        <time>2021-08-12T18:09:33.668Z</time>
      </trkpt>
      <trkpt lat="50.52364" lon="1.58267">
        <ele>16</ele>
        <time>2021-08-12T18:09:37.667Z</time>
      </trkpt>
      <trkpt lat="50.52361" lon="1.58263">
        <ele>17</ele>
        <time>2021-08-12T18:09:42.662Z</time>
      </trkpt>
      <trkpt lat="50.5236" lon="1.58258">
        <ele>17</ele>
        <time>2021-08-12T18:09:46.673Z</time>
      </trkpt>
      <trkpt lat="50.52357" lon="1.58253">
        <ele>17</ele>
        <time>2021-08-12T18:09:51.663Z</time>
      </trkpt>
      <trkpt lat="50.52355" lon="1.58249">
        <ele>17</ele>
        <time>2021-08-12T18:09:55.684Z</time>
      </trkpt>
      <trkpt lat="50.5235" lon="1.58245">
        <ele>17</ele>
        <time>2021-08-12T18:10:00.673Z</time>
      </trkpt>
      <trkpt lat="50.52346" lon="1.58241">
        <ele>17</ele>
        <time>2021-08-12T18:10:05.667Z</time>
      </trkpt>
      <trkpt lat="50.52343" lon="1.58238">
        <ele>17</ele>
        <time>2021-08-12T18:10:09.669Z</time>
      </trkpt>
      <trkpt lat="50.5234" lon="1.58235">
        <ele>18</ele>
        <time>2021-08-12T18:10:14.674Z</time>
      </trkpt>
      <trkpt lat="50.52336" lon="1.58234">
        <ele>18</ele>
        <time>2021-08-12T18:10:18.678Z</time>
      </trkpt>
      <trkpt lat="50.52331" lon="1.58231">
        <ele>18</ele>
        <time>2021-08-12T18:10:23.665Z</time>
      </trkpt>
      <trkpt lat="50.52327" lon="1.58229">
        <ele>18</ele>
        <time>2021-08-12T18:10:27.669Z</time>
      </trkpt>
      <trkpt lat="50.52322" lon="1.58226">
        <ele>18</ele>
        <time>2021-08-12T18:10:32.661Z</time>
      </trkpt>
      <trkpt lat="50.52317" lon="1.58224">
        <ele>17</ele>
        <time>2021-08-12T18:10:37.670Z</time>
      </trkpt>
      <trkpt lat="50.52312" lon="1.58224">
        <ele>17</ele>
        <time>2021-08-12T18:10:42.675Z</time>
      </trkpt>
      <trkpt lat="50.52307" lon="1.58222">
        <ele>17</ele>
        <time>2021-08-12T18:10:46.675Z</time>
      </trkpt>
      <trkpt lat="50.52302" lon="1.58218">
        <ele>17</ele>
        <time>2021-08-12T18:10:51.660Z</time>
      </trkpt>
      <trkpt lat="50.52301" lon="1.58209">
        <ele>17</ele>
        <time>2021-08-12T18:10:55.671Z</time>
      </trkpt>
      <trkpt lat="50.52302" lon="1.58202">
        <ele>17</ele>
        <time>2021-08-12T18:10:59.671Z</time>
      </trkpt>
      <trkpt lat="50.52303" lon="1.58193">
        <ele>17</ele>
        <time>2021-08-12T18:11:04.671Z</time>
      </trkpt>
      <trkpt lat="50.52305" lon="1.58187">
        <ele>17</ele>
        <time>2021-08-12T18:11:08.684Z</time>
      </trkpt>
      <trkpt lat="50.52306" lon="1.58178">
        <ele>16</ele>
        <time>2021-08-12T18:11:13.671Z</time>
      </trkpt>
      <trkpt lat="50.52307" lon="1.5817">
        <ele>16</ele>
        <time>2021-08-12T18:11:17.666Z</time>
      </trkpt>
      <trkpt lat="50.52309" lon="1.5816">
        <ele>16</ele>
        <time>2021-08-12T18:11:22.675Z</time>
      </trkpt>
      <trkpt lat="50.52311" lon="1.58151">
        <ele>15</ele>
        <time>2021-08-12T18:11:27.674Z</time>
      </trkpt>
      <trkpt lat="50.52313" lon="1.58143">
        <ele>15</ele>
        <time>2021-08-12T18:11:32.672Z</time>
      </trkpt>
      <trkpt lat="50.52314" lon="1.58136">
        <ele>15</ele>
        <time>2021-08-12T18:11:36.678Z</time>
      </trkpt>
      <trkpt lat="50.52314" lon="1.58126">
        <ele>15</ele>
        <time>2021-08-12T18:11:41.668Z</time>
      </trkpt>
      <trkpt lat="50.52313" lon="1.58118">
        <ele>16</ele>
        <time>2021-08-12T18:11:46.679Z</time>
      </trkpt>
      <trkpt lat="50.52312" lon="1.58111">
        <ele>16</ele>
        <time>2021-08-12T18:11:50.668Z</time>
      </trkpt>
      <trkpt lat="50.52311" lon="1.58105">
        <ele>16</ele>
        <time>2021-08-12T18:11:55.667Z</time>
      </trkpt>
      <trkpt lat="50.52312" lon="1.58101">
        <ele>16</ele>
        <time>2021-08-12T18:12:00.671Z</time>
      </trkpt>
      <trkpt lat="50.52316" lon="1.581">
        <ele>16</ele>
        <time>2021-08-12T18:12:05.670Z</time>
      </trkpt>
      <trkpt lat="50.5232" lon="1.58094">
        <ele>11</ele>
        <time>2021-08-12T18:12:10.672Z</time>
      </trkpt>
      <trkpt lat="50.52318" lon="1.58087">
        <ele>12</ele>
        <time>2021-08-12T18:12:15.671Z</time>
      </trkpt>
      <trkpt lat="50.52318" lon="1.58086">
        <ele>12</ele>
        <time>2021-08-12T18:12:20.683Z</time>
      </trkpt>
      <trkpt lat="50.52319" lon="1.58079">
        <ele>12</ele>
        <time>2021-08-12T18:12:25.678Z</time>
      </trkpt>
      <trkpt lat="50.52322" lon="1.58072">
        <ele>11</ele>
        <time>2021-08-12T18:12:30.674Z</time>
      </trkpt>
      <trkpt lat="50.52324" lon="1.58063">
        <ele>8</ele>
        <time>2021-08-12T18:12:35.673Z</time>
      </trkpt>
      <trkpt lat="50.52325" lon="1.58056">
        <ele>8</ele>
        <time>2021-08-12T18:12:39.670Z</time>
      </trkpt>
      <trkpt lat="50.52322" lon="1.58045">
        <ele>8</ele>
        <time>2021-08-12T18:12:44.675Z</time>
      </trkpt>
      <trkpt lat="50.52317" lon="1.58038">
        <ele>8</ele>
        <time>2021-08-12T18:12:49.668Z</time>
      </trkpt>
      <trkpt lat="50.52314" lon="1.58035">
        <ele>8</ele>
        <time>2021-08-12T18:12:53.670Z</time>
      </trkpt>
      <trkpt lat="50.5231" lon="1.58033">
        <ele>8</ele>
        <time>2021-08-12T18:12:57.668Z</time>
      </trkpt>
      <trkpt lat="50.52305" lon="1.5803">
        <ele>8</ele>
        <time>2021-08-12T18:13:02.672Z</time>
      </trkpt>
      <trkpt lat="50.523" lon="1.58028">
        <ele>8</ele>
        <time>2021-08-12T18:13:07.670Z</time>
      </trkpt>
      <trkpt lat="50.52295" lon="1.58024">
        <ele>8</ele>
        <time>2021-08-12T18:13:12.675Z</time>
      </trkpt>
      <trkpt lat="50.5229" lon="1.58022">
        <ele>9</ele>
        <time>2021-08-12T18:13:17.665Z</time>
      </trkpt>
      <trkpt lat="50.52284" lon="1.5802">
        <ele>9</ele>
        <time>2021-08-12T18:13:22.671Z</time>
      </trkpt>
      <trkpt lat="50.5228" lon="1.58018">
        <ele>9</ele>
        <time>2021-08-12T18:13:26.673Z</time>
      </trkpt>
      <trkpt lat="50.52275" lon="1.58017">
        <ele>9</ele>
        <time>2021-08-12T18:13:31.669Z</time>
      </trkpt>
      <trkpt lat="50.52271" lon="1.58015">
        <ele>9</ele>
        <time>2021-08-12T18:13:35.673Z</time>
      </trkpt>
      <trkpt lat="50.52267" lon="1.58014">
        <ele>9</ele>
        <time>2021-08-12T18:13:39.671Z</time>
      </trkpt>
      <trkpt lat="50.52261" lon="1.58012">
        <ele>8</ele>
        <time>2021-08-12T18:13:44.671Z</time>
      </trkpt>
      <trkpt lat="50.52257" lon="1.58011">
        <ele>8</ele>
        <time>2021-08-12T18:13:48.676Z</time>
      </trkpt>
      <trkpt lat="50.52252" lon="1.58009">
        <ele>8</ele>
        <time>2021-08-12T18:13:53.670Z</time>
      </trkpt>
      <trkpt lat="50.52248" lon="1.58007">
        <ele>8</ele>
        <time>2021-08-12T18:13:57.672Z</time>
      </trkpt>
      <trkpt lat="50.52243" lon="1.58005">
        <ele>8</ele>
        <time>2021-08-12T18:14:02.668Z</time>
      </trkpt>
      <trkpt lat="50.52237" lon="1.58004">
        <ele>8</ele>
        <time>2021-08-12T18:14:07.662Z</time>
      </trkpt>
      <trkpt lat="50.52233" lon="1.58003">
        <ele>9</ele>
        <time>2021-08-12T18:14:11.679Z</time>
      </trkpt>
      <trkpt lat="50.52228" lon="1.58001">
        <ele>9</ele>
        <time>2021-08-12T18:14:16.682Z</time>
      </trkpt>
      <trkpt lat="50.52223" lon="1.57999">
        <ele>9</ele>
        <time>2021-08-12T18:14:21.672Z</time>
      </trkpt>
      <trkpt lat="50.52217" lon="1.57996">
        <ele>9</ele>
        <time>2021-08-12T18:14:26.778Z</time>
      </trkpt>
      <trkpt lat="50.52212" lon="1.57995">
        <ele>9</ele>
        <time>2021-08-12T18:14:31.660Z</time>
      </trkpt>
      <trkpt lat="50.52208" lon="1.57993">
        <ele>9</ele>
        <time>2021-08-12T18:14:35.666Z</time>
      </trkpt>
      <trkpt lat="50.52203" lon="1.57992">
        <ele>9</ele>
        <time>2021-08-12T18:14:39.670Z</time>
      </trkpt>
      <trkpt lat="50.52198" lon="1.5799">
        <ele>9</ele>
        <time>2021-08-12T18:14:44.684Z</time>
      </trkpt>
      <trkpt lat="50.52192" lon="1.57989">
        <ele>9</ele>
        <time>2021-08-12T18:14:49.680Z</time>
      </trkpt>
      <trkpt lat="50.52186" lon="1.57987">
        <ele>9</ele>
        <time>2021-08-12T18:14:54.672Z</time>
      </trkpt>
      <trkpt lat="50.52181" lon="1.57986">
        <ele>8</ele>
        <time>2021-08-12T18:14:59.657Z</time>
      </trkpt>
      <trkpt lat="50.52176" lon="1.57984">
        <ele>8</ele>
        <time>2021-08-12T18:15:03.666Z</time>
      </trkpt>
      <trkpt lat="50.52172" lon="1.57983">
        <ele>8</ele>
        <time>2021-08-12T18:15:07.663Z</time>
      </trkpt>
      <trkpt lat="50.52166" lon="1.57981">
        <ele>8</ele>
        <time>2021-08-12T18:15:12.665Z</time>
      </trkpt>
      <trkpt lat="50.52162" lon="1.5798">
        <ele>8</ele>
        <time>2021-08-12T18:15:16.667Z</time>
      </trkpt>
      <trkpt lat="50.52157" lon="1.57978">
        <ele>8</ele>
        <time>2021-08-12T18:15:21.683Z</time>
      </trkpt>
      <trkpt lat="50.52151" lon="1.57976">
        <ele>8</ele>
        <time>2021-08-12T18:15:26.670Z</time>
      </trkpt>
      <trkpt lat="50.52146" lon="1.57975">
        <ele>8</ele>
        <time>2021-08-12T18:15:31.674Z</time>
      </trkpt>
      <trkpt lat="50.52141" lon="1.57974">
        <ele>8</ele>
        <time>2021-08-12T18:15:35.671Z</time>
      </trkpt>
      <trkpt lat="50.52136" lon="1.57972">
        <ele>8</ele>
        <time>2021-08-12T18:15:40.672Z</time>
      </trkpt>
      <trkpt lat="50.5213" lon="1.57971">
        <ele>8</ele>
        <time>2021-08-12T18:15:45.676Z</time>
      </trkpt>
      <trkpt lat="50.52124" lon="1.5797">
        <ele>8</ele>
        <time>2021-08-12T18:15:50.676Z</time>
      </trkpt>
      <trkpt lat="50.52119" lon="1.57968">
        <ele>8</ele>
        <time>2021-08-12T18:15:55.681Z</time>
      </trkpt>
      <trkpt lat="50.52113" lon="1.57968">
        <ele>8</ele>
        <time>2021-08-12T18:16:00.673Z</time>
      </trkpt>
      <trkpt lat="50.52108" lon="1.57967">
        <ele>8</ele>
        <time>2021-08-12T18:16:05.670Z</time>
      </trkpt>
      <trkpt lat="50.52103" lon="1.57967">
        <ele>8</ele>
        <time>2021-08-12T18:16:09.674Z</time>
      </trkpt>
      <trkpt lat="50.52098" lon="1.57965">
        <ele>8</ele>
        <time>2021-08-12T18:16:14.680Z</time>
      </trkpt>
      <trkpt lat="50.52092" lon="1.57963">
        <ele>8</ele>
        <time>2021-08-12T18:16:19.681Z</time>
      </trkpt>
      <trkpt lat="50.52087" lon="1.57962">
        <ele>8</ele>
        <time>2021-08-12T18:16:24.678Z</time>
      </trkpt>
      <trkpt lat="50.52082" lon="1.5796">
        <ele>8</ele>
        <time>2021-08-12T18:16:29.672Z</time>
      </trkpt>
      <trkpt lat="50.52076" lon="1.5796">
        <ele>8</ele>
        <time>2021-08-12T18:16:34.676Z</time>
      </trkpt>
      <trkpt lat="50.52072" lon="1.57959">
        <ele>8</ele>
        <time>2021-08-12T18:16:38.683Z</time>
      </trkpt>
      <trkpt lat="50.52067" lon="1.57957">
        <ele>6</ele>
        <time>2021-08-12T18:16:43.672Z</time>
      </trkpt>
      <trkpt lat="50.52063" lon="1.57958">
        <ele>6</ele>
        <time>2021-08-12T18:16:47.674Z</time>
      </trkpt>
      <trkpt lat="50.52057" lon="1.57957">
        <ele>6</ele>
        <time>2021-08-12T18:16:52.669Z</time>
      </trkpt>
      <trkpt lat="50.52052" lon="1.57956">
        <ele>6</ele>
        <time>2021-08-12T18:16:57.669Z</time>
      </trkpt>
      <trkpt lat="50.52046" lon="1.57953">
        <ele>6</ele>
        <time>2021-08-12T18:17:02.669Z</time>
      </trkpt>
      <trkpt lat="50.52041" lon="1.5795">
        <ele>7</ele>
        <time>2021-08-12T18:17:07.662Z</time>
      </trkpt>
      <trkpt lat="50.52036" lon="1.57949">
        <ele>7</ele>
        <time>2021-08-12T18:17:12.659Z</time>
      </trkpt>
      <trkpt lat="50.52032" lon="1.57948">
        <ele>7</ele>
        <time>2021-08-12T18:17:16.659Z</time>
      </trkpt>
      <trkpt lat="50.52026" lon="1.57947">
        <ele>7</ele>
        <time>2021-08-12T18:17:21.672Z</time>
      </trkpt>
      <trkpt lat="50.52021" lon="1.57945">
        <ele>7</ele>
        <time>2021-08-12T18:17:26.666Z</time>
      </trkpt>
      <trkpt lat="50.52017" lon="1.57944">
        <ele>7</ele>
        <time>2021-08-12T18:17:30.671Z</time>
      </trkpt>
      <trkpt lat="50.52012" lon="1.57944">
        <ele>9</ele>
        <time>2021-08-12T18:17:35.666Z</time>
      </trkpt>
      <trkpt lat="50.52007" lon="1.57942">
        <ele>9</ele>
        <time>2021-08-12T18:17:39.682Z</time>
      </trkpt>
      <trkpt lat="50.52002" lon="1.57941">
        <ele>9</ele>
        <time>2021-08-12T18:17:44.669Z</time>
      </trkpt>
      <trkpt lat="50.51997" lon="1.57941">
        <ele>9</ele>
        <time>2021-08-12T18:17:49.670Z</time>
      </trkpt>
      <trkpt lat="50.51993" lon="1.5794">
        <ele>9</ele>
        <time>2021-08-12T18:17:53.669Z</time>
      </trkpt>
      <trkpt lat="50.51989" lon="1.5794">
        <ele>9</ele>
        <time>2021-08-12T18:17:57.669Z</time>
      </trkpt>
      <trkpt lat="50.51984" lon="1.57939">
        <ele>9</ele>
        <time>2021-08-12T18:18:02.669Z</time>
      </trkpt>
      <trkpt lat="50.51979" lon="1.57937">
        <ele>9</ele>
        <time>2021-08-12T18:18:06.670Z</time>
      </trkpt>
      <trkpt lat="50.51974" lon="1.57936">
        <ele>9</ele>
        <time>2021-08-12T18:18:11.671Z</time>
      </trkpt>
      <trkpt lat="50.51969" lon="1.57936">
        <ele>9</ele>
        <time>2021-08-12T18:18:16.672Z</time>
      </trkpt>
      <trkpt lat="50.51964" lon="1.57934">
        <ele>9</ele>
        <time>2021-08-12T18:18:21.666Z</time>
      </trkpt>
      <trkpt lat="50.5196" lon="1.57933">
        <ele>9</ele>
        <time>2021-08-12T18:18:25.673Z</time>
      </trkpt>
      <trkpt lat="50.51955" lon="1.57931">
        <ele>10</ele>
        <time>2021-08-12T18:18:30.672Z</time>
      </trkpt>
      <trkpt lat="50.51949" lon="1.5793">
        <ele>7</ele>
        <time>2021-08-12T18:18:35.668Z</time>
      </trkpt>
      <trkpt lat="50.51944" lon="1.57928">
        <ele>7</ele>
        <time>2021-08-12T18:18:40.670Z</time>
      </trkpt>
      <trkpt lat="50.51939" lon="1.57928">
        <ele>7</ele>
        <time>2021-08-12T18:18:45.675Z</time>
      </trkpt>
      <trkpt lat="50.51933" lon="1.57927">
        <ele>7</ele>
        <time>2021-08-12T18:18:50.672Z</time>
      </trkpt>
      <trkpt lat="50.51927" lon="1.57925">
        <ele>8</ele>
        <time>2021-08-12T18:18:55.666Z</time>
      </trkpt>
      <trkpt lat="50.51923" lon="1.57925">
        <ele>8</ele>
        <time>2021-08-12T18:18:59.670Z</time>
      </trkpt>
      <trkpt lat="50.51918" lon="1.57924">
        <ele>8</ele>
        <time>2021-08-12T18:19:04.669Z</time>
      </trkpt>
      <trkpt lat="50.51914" lon="1.57923">
        <ele>8</ele>
        <time>2021-08-12T18:19:08.673Z</time>
      </trkpt>
      <trkpt lat="50.51908" lon="1.57923">
        <ele>8</ele>
        <time>2021-08-12T18:19:13.673Z</time>
      </trkpt>
      <trkpt lat="50.51904" lon="1.57922">
        <ele>8</ele>
        <time>2021-08-12T18:19:17.664Z</time>
      </trkpt>
      <trkpt lat="50.51899" lon="1.57921">
        <ele>9</ele>
        <time>2021-08-12T18:19:22.666Z</time>
      </trkpt>
      <trkpt lat="50.51894" lon="1.5792">
        <ele>9</ele>
        <time>2021-08-12T18:19:26.669Z</time>
      </trkpt>
      <trkpt lat="50.51889" lon="1.57919">
        <ele>9</ele>
        <time>2021-08-12T18:19:31.669Z</time>
      </trkpt>
      <trkpt lat="50.51884" lon="1.57919">
        <ele>9</ele>
        <time>2021-08-12T18:19:36.670Z</time>
      </trkpt>
      <trkpt lat="50.5188" lon="1.57919">
        <ele>9</ele>
        <time>2021-08-12T18:19:40.679Z</time>
      </trkpt>
      <trkpt lat="50.51874" lon="1.57918">
        <ele>10</ele>
        <time>2021-08-12T18:19:45.671Z</time>
      </trkpt>
      <trkpt lat="50.5187" lon="1.57917">
        <ele>10</ele>
        <time>2021-08-12T18:19:49.668Z</time>
      </trkpt>
      <trkpt lat="50.51866" lon="1.57917">
        <ele>10</ele>
        <time>2021-08-12T18:19:53.671Z</time>
      </trkpt>
      <trkpt lat="50.51862" lon="1.57916">
        <ele>10</ele>
        <time>2021-08-12T18:19:57.670Z</time>
      </trkpt>
      <trkpt lat="50.51857" lon="1.57915">
        <ele>10</ele>
        <time>2021-08-12T18:20:02.667Z</time>
      </trkpt>
      <trkpt lat="50.51852" lon="1.57914">
        <ele>10</ele>
        <time>2021-08-12T18:20:06.672Z</time>
      </trkpt>
      <trkpt lat="50.51848" lon="1.57913">
        <ele>10</ele>
        <time>2021-08-12T18:20:10.678Z</time>
      </trkpt>
      <trkpt lat="50.51842" lon="1.57912">
        <ele>11</ele>
        <time>2021-08-12T18:20:15.671Z</time>
      </trkpt>
      <trkpt lat="50.51838" lon="1.57912">
        <ele>11</ele>
        <time>2021-08-12T18:20:19.677Z</time>
      </trkpt>
      <trkpt lat="50.51832" lon="1.57911">
        <ele>11</ele>
        <time>2021-08-12T18:20:24.671Z</time>
      </trkpt>
      <trkpt lat="50.51827" lon="1.5791">
        <ele>11</ele>
        <time>2021-08-12T18:20:29.677Z</time>
      </trkpt>
      <trkpt lat="50.51821" lon="1.57909">
        <ele>11</ele>
        <time>2021-08-12T18:20:34.672Z</time>
      </trkpt>
      <trkpt lat="50.51817" lon="1.57908">
        <ele>11</ele>
        <time>2021-08-12T18:20:38.669Z</time>
      </trkpt>
      <trkpt lat="50.51811" lon="1.57907">
        <ele>11</ele>
        <time>2021-08-12T18:20:43.670Z</time>
      </trkpt>
      <trkpt lat="50.51807" lon="1.57907">
        <ele>11</ele>
        <time>2021-08-12T18:20:47.667Z</time>
      </trkpt>
      <trkpt lat="50.51801" lon="1.57906">
        <ele>11</ele>
        <time>2021-08-12T18:20:52.668Z</time>
      </trkpt>
      <trkpt lat="50.51797" lon="1.57905">
        <ele>11</ele>
        <time>2021-08-12T18:20:56.673Z</time>
      </trkpt>
      <trkpt lat="50.51792" lon="1.57904">
        <ele>10</ele>
        <time>2021-08-12T18:21:01.676Z</time>
      </trkpt>
      <trkpt lat="50.51786" lon="1.57903">
        <ele>10</ele>
        <time>2021-08-12T18:21:06.664Z</time>
      </trkpt>
      <trkpt lat="50.51782" lon="1.57903">
        <ele>10</ele>
        <time>2021-08-12T18:21:10.677Z</time>
      </trkpt>
      <trkpt lat="50.51776" lon="1.57902">
        <ele>6</ele>
        <time>2021-08-12T18:21:15.664Z</time>
      </trkpt>
      <trkpt lat="50.51772" lon="1.57901">
        <ele>6</ele>
        <time>2021-08-12T18:21:19.683Z</time>
      </trkpt>
      <trkpt lat="50.51766" lon="1.57901">
        <ele>6</ele>
        <time>2021-08-12T18:21:24.669Z</time>
      </trkpt>
      <trkpt lat="50.5176" lon="1.579">
        <ele>8</ele>
        <time>2021-08-12T18:21:29.673Z</time>
      </trkpt>
      <trkpt lat="50.51755" lon="1.579">
        <ele>8</ele>
        <time>2021-08-12T18:21:34.672Z</time>
      </trkpt>
      <trkpt lat="50.51751" lon="1.57899">
        <ele>8</ele>
        <time>2021-08-12T18:21:38.683Z</time>
      </trkpt>
      <trkpt lat="50.51745" lon="1.57899">
        <ele>8</ele>
        <time>2021-08-12T18:21:43.672Z</time>
      </trkpt>
      <trkpt lat="50.51741" lon="1.57898">
        <ele>8</ele>
        <time>2021-08-12T18:21:47.677Z</time>
      </trkpt>
      <trkpt lat="50.51735" lon="1.57898">
        <ele>6</ele>
        <time>2021-08-12T18:21:52.668Z</time>
      </trkpt>
      <trkpt lat="50.5173" lon="1.57897">
        <ele>6</ele>
        <time>2021-08-12T18:21:57.672Z</time>
      </trkpt>
      <trkpt lat="50.51724" lon="1.57896">
        <ele>6</ele>
        <time>2021-08-12T18:22:02.663Z</time>
      </trkpt>
      <trkpt lat="50.5172" lon="1.57897">
        <ele>6</ele>
        <time>2021-08-12T18:22:06.662Z</time>
      </trkpt>
      <trkpt lat="50.51714" lon="1.57895">
        <ele>6</ele>
        <time>2021-08-12T18:22:11.665Z</time>
      </trkpt>
      <trkpt lat="50.51709" lon="1.57896">
        <ele>6</ele>
        <time>2021-08-12T18:22:16.667Z</time>
      </trkpt>
      <trkpt lat="50.51703" lon="1.57895">
        <ele>7</ele>
        <time>2021-08-12T18:22:21.676Z</time>
      </trkpt>
      <trkpt lat="50.51696" lon="1.57894">
        <ele>7</ele>
        <time>2021-08-12T18:22:26.668Z</time>
      </trkpt>
      <trkpt lat="50.5169" lon="1.57893">
        <ele>7</ele>
        <time>2021-08-12T18:22:31.669Z</time>
      </trkpt>
      <trkpt lat="50.51684" lon="1.57892">
        <ele>7</ele>
        <time>2021-08-12T18:22:36.674Z</time>
      </trkpt>
      <trkpt lat="50.5168" lon="1.57893">
        <ele>9</ele>
        <time>2021-08-12T18:22:40.678Z</time>
      </trkpt>
      <trkpt lat="50.51675" lon="1.57892">
        <ele>9</ele>
        <time>2021-08-12T18:22:45.674Z</time>
      </trkpt>
      <trkpt lat="50.5167" lon="1.5789">
        <ele>9</ele>
        <time>2021-08-12T18:22:50.667Z</time>
      </trkpt>
      <trkpt lat="50.51666" lon="1.5789">
        <ele>9</ele>
        <time>2021-08-12T18:22:54.670Z</time>
      </trkpt>
      <trkpt lat="50.51661" lon="1.57889">
        <ele>9</ele>
        <time>2021-08-12T18:22:59.680Z</time>
      </trkpt>
      <trkpt lat="50.51656" lon="1.57888">
        <ele>9</ele>
        <time>2021-08-12T18:23:04.667Z</time>
      </trkpt>
      <trkpt lat="50.51652" lon="1.57888">
        <ele>10</ele>
        <time>2021-08-12T18:23:08.676Z</time>
      </trkpt>
      <trkpt lat="50.51646" lon="1.57886">
        <ele>10</ele>
        <time>2021-08-12T18:23:13.668Z</time>
      </trkpt>
      <trkpt lat="50.51642" lon="1.57885">
        <ele>10</ele>
        <time>2021-08-12T18:23:17.672Z</time>
      </trkpt>
      <trkpt lat="50.51637" lon="1.57885">
        <ele>10</ele>
        <time>2021-08-12T18:23:22.675Z</time>
      </trkpt>
      <trkpt lat="50.51632" lon="1.57886">
        <ele>10</ele>
        <time>2021-08-12T18:23:27.672Z</time>
      </trkpt>
      <trkpt lat="50.51626" lon="1.57886">
        <ele>10</ele>
        <time>2021-08-12T18:23:32.663Z</time>
      </trkpt>
      <trkpt lat="50.51622" lon="1.57886">
        <ele>12</ele>
        <time>2021-08-12T18:23:36.676Z</time>
      </trkpt>
      <trkpt lat="50.51617" lon="1.57888">
        <ele>12</ele>
        <time>2021-08-12T18:23:41.669Z</time>
      </trkpt>
      <trkpt lat="50.51612" lon="1.57888">
        <ele>12</ele>
        <time>2021-08-12T18:23:46.668Z</time>
      </trkpt>
      <trkpt lat="50.51607" lon="1.57886">
        <ele>12</ele>
        <time>2021-08-12T18:23:51.676Z</time>
      </trkpt>
      <trkpt lat="50.51601" lon="1.57884">
        <ele>12</ele>
        <time>2021-08-12T18:23:56.669Z</time>
      </trkpt>
      <trkpt lat="50.51596" lon="1.57884">
        <ele>16</ele>
        <time>2021-08-12T18:24:01.679Z</time>
      </trkpt>
      <trkpt lat="50.51591" lon="1.57883">
        <ele>16</ele>
        <time>2021-08-12T18:24:06.670Z</time>
      </trkpt>
      <trkpt lat="50.51586" lon="1.57883">
        <ele>16</ele>
        <time>2021-08-12T18:24:11.669Z</time>
      </trkpt>
      <trkpt lat="50.51581" lon="1.57882">
        <ele>16</ele>
        <time>2021-08-12T18:24:16.672Z</time>
      </trkpt>
      <trkpt lat="50.51577" lon="1.57878">
        <ele>16</ele>
        <time>2021-08-12T18:24:20.768Z</time>
      </trkpt>
      <trkpt lat="50.51574" lon="1.57873">
        <ele>13</ele>
        <time>2021-08-12T18:24:25.665Z</time>
      </trkpt>
      <trkpt lat="50.51573" lon="1.57868">
        <ele>13</ele>
        <time>2021-08-12T18:24:29.669Z</time>
      </trkpt>
      <trkpt lat="50.5157" lon="1.57863">
        <ele>13</ele>
        <time>2021-08-12T18:24:34.670Z</time>
      </trkpt>
      <trkpt lat="50.51567" lon="1.5786">
        <ele>14</ele>
        <time>2021-08-12T18:24:38.679Z</time>
      </trkpt>
      <trkpt lat="50.51562" lon="1.57856">
        <ele>14</ele>
        <time>2021-08-12T18:24:43.669Z</time>
      </trkpt>
      <trkpt lat="50.51557" lon="1.57853">
        <ele>14</ele>
        <time>2021-08-12T18:24:47.671Z</time>
      </trkpt>
      <trkpt lat="50.51552" lon="1.57852">
        <ele>14</ele>
        <time>2021-08-12T18:24:52.675Z</time>
      </trkpt>
      <trkpt lat="50.51546" lon="1.57849">
        <ele>14</ele>
        <time>2021-08-12T18:24:57.665Z</time>
      </trkpt>
      <trkpt lat="50.51542" lon="1.57848">
        <ele>14</ele>
        <time>2021-08-12T18:25:01.665Z</time>
      </trkpt>
      <trkpt lat="50.51537" lon="1.57846">
        <ele>12</ele>
        <time>2021-08-12T18:25:06.673Z</time>
      </trkpt>
      <trkpt lat="50.51531" lon="1.57844">
        <ele>12</ele>
        <time>2021-08-12T18:25:11.679Z</time>
      </trkpt>
      <trkpt lat="50.51526" lon="1.57842">
        <ele>12</ele>
        <time>2021-08-12T18:25:16.684Z</time>
      </trkpt>
      <trkpt lat="50.5152" lon="1.57841">
        <ele>12</ele>
        <time>2021-08-12T18:25:21.671Z</time>
      </trkpt>
      <trkpt lat="50.51515" lon="1.5784">
        <ele>12</ele>
        <time>2021-08-12T18:25:26.679Z</time>
      </trkpt>
      <trkpt lat="50.51509" lon="1.5784">
        <ele>13</ele>
        <time>2021-08-12T18:25:31.664Z</time>
      </trkpt>
      <trkpt lat="50.51503" lon="1.5784">
        <ele>13</ele>
        <time>2021-08-12T18:25:36.682Z</time>
      </trkpt>
      <trkpt lat="50.51498" lon="1.57839">
        <ele>13</ele>
        <time>2021-08-12T18:25:41.669Z</time>
      </trkpt>
      <trkpt lat="50.51493" lon="1.57839">
        <ele>13</ele>
        <time>2021-08-12T18:25:46.678Z</time>
      </trkpt>
      <trkpt lat="50.51487" lon="1.57838">
        <ele>13</ele>
        <time>2021-08-12T18:25:51.669Z</time>
      </trkpt>
      <trkpt lat="50.51482" lon="1.57837">
        <ele>15</ele>
        <time>2021-08-12T18:25:56.771Z</time>
      </trkpt>
      <trkpt lat="50.51477" lon="1.57835">
        <ele>15</ele>
        <time>2021-08-12T18:26:01.674Z</time>
      </trkpt>
      <trkpt lat="50.51473" lon="1.57833">
        <ele>15</ele>
        <time>2021-08-12T18:26:05.668Z</time>
      </trkpt>
      <trkpt lat="50.51469" lon="1.5783">
        <ele>15</ele>
        <time>2021-08-12T18:26:10.682Z</time>
      </trkpt>
      <trkpt lat="50.51469" lon="1.57829">
        <ele>15</ele>
        <time>2021-08-12T18:26:15.664Z</time>
      </trkpt>
      <trkpt lat="50.51469" lon="1.57829">
        <ele>15</ele>
        <time>2021-08-12T18:26:24.666Z</time>
      </trkpt>
      <trkpt lat="50.51469" lon="1.57829">
        <ele>15</ele>
        <time>2021-08-12T18:26:28.669Z</time>
      </trkpt>
      <trkpt lat="50.51468" lon="1.57829">
        <ele>15</ele>
        <time>2021-08-12T18:26:33.663Z</time>
      </trkpt>
      <trkpt lat="50.51464" lon="1.57828">
        <ele>15</ele>
        <time>2021-08-12T18:26:37.673Z</time>
      </trkpt>
      <trkpt lat="50.51459" lon="1.57828">
        <ele>15</ele>
        <time>2021-08-12T18:26:42.669Z</time>
      </trkpt>
      <trkpt lat="50.51455" lon="1.5783">
        <ele>15</ele>
        <time>2021-08-12T18:26:46.672Z</time>
      </trkpt>
      <trkpt lat="50.5145" lon="1.57829">
        <ele>15</ele>
        <time>2021-08-12T18:26:51.677Z</time>
      </trkpt>
      <trkpt lat="50.51445" lon="1.57829">
        <ele>15</ele>
        <time>2021-08-12T18:26:56.663Z</time>
      </trkpt>
      <trkpt lat="50.51439" lon="1.57829">
        <ele>15</ele>
        <time>2021-08-12T18:27:01.676Z</time>
      </trkpt>
      <trkpt lat="50.51434" lon="1.57828">
        <ele>15</ele>
        <time>2021-08-12T18:27:06.668Z</time>
      </trkpt>
      <trkpt lat="50.51429" lon="1.57827">
        <ele>15</ele>
        <time>2021-08-12T18:27:10.671Z</time>
      </trkpt>
      <trkpt lat="50.51424" lon="1.57826">
        <ele>15</ele>
        <time>2021-08-12T18:27:15.662Z</time>
      </trkpt>
      <trkpt lat="50.51421" lon="1.57822">
        <ele>15</ele>
        <time>2021-08-12T18:27:19.662Z</time>
      </trkpt>
      <trkpt lat="50.51419" lon="1.57816">
        <ele>13</ele>
        <time>2021-08-12T18:27:23.678Z</time>
      </trkpt>
      <trkpt lat="50.51415" lon="1.57811">
        <ele>13</ele>
        <time>2021-08-12T18:27:28.666Z</time>
      </trkpt>
      <trkpt lat="50.51412" lon="1.57806">
        <ele>13</ele>
        <time>2021-08-12T18:27:33.670Z</time>
      </trkpt>
      <trkpt lat="50.51413" lon="1.57801">
        <ele>13</ele>
        <time>2021-08-12T18:27:37.666Z</time>
      </trkpt>
      <trkpt lat="50.51413" lon="1.57793">
        <ele>13</ele>
        <time>2021-08-12T18:27:42.662Z</time>
      </trkpt>
      <trkpt lat="50.5141" lon="1.57788">
        <ele>15</ele>
        <time>2021-08-12T18:27:46.671Z</time>
      </trkpt>
      <trkpt lat="50.51409" lon="1.57781">
        <ele>15</ele>
        <time>2021-08-12T18:27:51.670Z</time>
      </trkpt>
      <trkpt lat="50.5141" lon="1.57774">
        <ele>15</ele>
        <time>2021-08-12T18:27:56.673Z</time>
      </trkpt>
      <trkpt lat="50.51405" lon="1.57779">
        <ele>15</ele>
        <time>2021-08-12T18:28:01.662Z</time>
      </trkpt>
      <trkpt lat="50.514" lon="1.57778">
        <ele>14</ele>
        <time>2021-08-12T18:28:06.662Z</time>
      </trkpt>
      <trkpt lat="50.51394" lon="1.57777">
        <ele>14</ele>
        <time>2021-08-12T18:28:11.668Z</time>
      </trkpt>
      <trkpt lat="50.5139" lon="1.57774">
        <ele>14</ele>
        <time>2021-08-12T18:28:16.662Z</time>
      </trkpt>
      <trkpt lat="50.51385" lon="1.57771">
        <ele>14</ele>
        <time>2021-08-12T18:28:21.670Z</time>
      </trkpt>
      <trkpt lat="50.5138" lon="1.57768">
        <ele>14</ele>
        <time>2021-08-12T18:28:26.671Z</time>
      </trkpt>
      <trkpt lat="50.51377" lon="1.57762">
        <ele>9</ele>
        <time>2021-08-12T18:28:31.668Z</time>
      </trkpt>
      <trkpt lat="50.51373" lon="1.57756">
        <ele>10</ele>
        <time>2021-08-12T18:28:36.663Z</time>
      </trkpt>
      <trkpt lat="50.5137" lon="1.57751">
        <ele>10</ele>
        <time>2021-08-12T18:28:40.665Z</time>
      </trkpt>
      <trkpt lat="50.51367" lon="1.57745">
        <ele>10</ele>
        <time>2021-08-12T18:28:45.668Z</time>
      </trkpt>
      <trkpt lat="50.51364" lon="1.5774">
        <ele>10</ele>
        <time>2021-08-12T18:28:50.664Z</time>
      </trkpt>
      <trkpt lat="50.51361" lon="1.57735">
        <ele>5</ele>
        <time>2021-08-12T18:28:54.671Z</time>
      </trkpt>
      <trkpt lat="50.51364" lon="1.57735">
        <ele>5</ele>
        <time>2021-08-12T18:32:50.665Z</time>
      </trkpt>
      <trkpt lat="50.51367" lon="1.57735">
        <ele>5</ele>
        <time>2021-08-12T18:32:54.674Z</time>
      </trkpt>
      <trkpt lat="50.51369" lon="1.57734">
        <ele>5</ele>
        <time>2021-08-12T18:32:59.663Z</time>
      </trkpt>
      <trkpt lat="50.51369" lon="1.57734">
        <ele>5</ele>
        <time>2021-08-12T18:33:04.663Z</time>
      </trkpt>
      <trkpt lat="50.51369" lon="1.57735">
        <ele>5</ele>
        <time>2021-08-12T18:33:09.662Z</time>
      </trkpt>
    </trkseg>
  </trk>
</gpx>